KDLN/DLN METAR and TAF weather

Enter ICAO airport designator
Station Type Date Time Source
KDLN METAR 2022/12/10 02:53 UTC NOAA

KDLN 100253Z AUTO 19009KT 10SM CLR M08/M12 A2994 RMK AO2 SLP199 T10831122 51009


Station Type Date Time Source
KDLN Decoded METAR 2022/12/10 02:53 UTC NOAA

DILLON AIRPORT, MT, United States (KDLN) 45-15N 112-33W 1591M
Dec 09, 2022 - 09:53 PM EST / 2022.12.10 0253 UTC
Wind: from the S (190 degrees) at 10 MPH (9 KT):0
Visibility: 10 mile(s):0
Sky conditions: clear
Temperature: 17.1 F (-8.3 C)
Windchill: 5 F (-15 C):1
Dew Point: 10.0 F (-12.2 C)
Relative Humidity: 73%
Pressure (altimeter): 29.94 in. Hg (1013 hPa)
Pressure tendency: 0.03 inches (0.9 hPa) higher than three hours ago
ob: KDLN 100253Z AUTO 19009KT 10SM CLR M08/M12 A2994 RMK AO2 SLP199 T10831122 51009
cycle: 3

Station Type Date Time Source
KDLN TAF UTC NOAA

Error!

Example: see airport list